Time;durP1;ratioP1;P1;durP2;ratioP2;P2;SDS_P1;SDS_P2;PMS_P1;PMS_P2;Temp;Humidity;BMP_temperature;BMP_pressure;BME280_temperature;BME280_humidity;BME280_pressure;Samples;Min_cycle;Max_cycle;Signal;HPM_P1;HPM_P2
2021/01/01 00:00:22;;;;;;;36.53;18.10;;;;;;;5.59;83.09;96779.55;1829648;78;21207;-68
2021/01/01 00:02:54;;;;;;;35.05;17.02;;;;;;;5.57;82.35;96783.53;1828872;78;21588;-65
2021/01/01 00:05:22;;;;;;;32.98;17.32;;;;;;;5.52;82.31;96783.16;1828860;78;21777;-68
2021/01/01 00:07:51;;;;;;;30.55;16.60;;;;;;;5.46;82.57;96784.99;1829021;78;21290;-66
2021/01/01 00:10:20;;;;;;;30.30;14.85;;;;;;;5.45;82.07;96784.65;1828962;78;21162;-64
2021/01/01 00:12:48;;;;;;;30.72;14.65;;;;;;;5.44;82.37;96785.63;1829029;78;21319;-64
2021/01/01 00:15:16;;;;;;;30.43;13.95;;;;;;;5.45;82.65;96786.41;1828827;78;21146;-64
2021/01/01 00:17:44;;;;;;;29.42;13.62;;;;;;;5.45;82.46;96796.23;1829203;78;21639;-67
2021/01/01 00:20:17;;;;;;;26.10;12.35;;;;;;;5.46;82.15;96799.16;1828834;78;21714;-64
2021/01/01 00:22:45;;;;;;;23.27;12.68;;;;;;;5.48;82.22;96793.88;1828197;78;21198;-66
2021/01/01 00:25:13;;;;;;;23.07;12.55;;;;;;;5.49;81.65;96796.77;1828835;78;21179;-66
2021/01/01 00:27:41;;;;;;;24.25;13.48;;;;;;;5.50;81.30;96799.21;1830953;78;21183;-63
2021/01/01 00:30:11;;;;;;;25.17;12.58;;;;;;;5.54;81.67;96810.05;1828857;77;21171;-64
2021/01/01 00:32:46;;;;;;;19.52;10.43;;;;;;;5.54;82.13;96811.33;1833963;78;21178;-68
2021/01/01 00:35:17;;;;;;;19.50;11.38;;;;;;;5.55;81.59;96809.91;1828280;77;21714;-66
2021/01/01 00:37:45;;;;;;;19.67;10.10;;;;;;;5.60;81.15;96812.08;1811868;78;21285;-71
2021/01/01 00:40:14;;;;;;;29.05;16.12;;;;;;;5.66;80.74;96809.75;1803438;78;21175;-70
2021/01/01 00:42:43;;;;;;;34.70;18.15;;;;;;;5.73;80.71;96808.23;1799363;79;21552;-70
2021/01/01 00:45:12;;;;;;;27.82;14.70;;;;;;;5.81;80.90;96810.09;1799378;79;21214;-68
2021/01/01 00:47:40;;;;;;;21.62;10.82;;;;;;;5.89;80.52;96815.39;1799372;79;21603;-67
2021/01/01 00:50:13;;;;;;;17.70;10.63;;;;;;;5.99;80.27;96820.52;1769063;80;21124;-65
2021/01/01 00:52:41;;;;;;;23.35;10.48;;;;;;;6.06;80.17;96820.28;1800179;79;21774;-66
2021/01/01 00:55:10;;;;;;;21.23;9.48;;;;;;;6.15;79.90;96825.84;1801570;80;21211;-66
2021/01/01 00:57:38;;;;;;;16.05;8.10;;;;;;;6.24;79.37;96833.20;1800900;80;21159;-66
2021/01/01 01:00:08;;;;;;;16.05;8.35;;;;;;;6.30;78.87;96830.08;1801934;80;21465;-67
2021/01/01 01:02:37;;;;;;;14.80;8.18;;;;;;;6.37;78.16;96833.70;1800169;80;21182;-67
2021/01/01 01:05:06;;;;;;;12.18;6.62;;;;;;;6.38;77.56;96831.46;1808738;78;21194;-66
2021/01/01 01:07:35;;;;;;;15.70;7.95;;;;;;;6.42;77.50;96831.50;1833815;78;21138;-68
2021/01/01 01:10:05;;;;;;;20.10;9.70;;;;;;;6.50;77.75;96834.14;1833919;78;21138;-67
2021/01/01 01:12:33;;;;;;;47.55;22.65;;;;;;;6.57;77.69;96839.09;1833160;78;21147;-66
2021/01/01 01:15:01;;;;;;;37.30;19.40;;;;;;;6.62;77.39;96838.97;1822512;78;21182;-68
2021/01/01 01:17:29;;;;;;;38.95;17.65;;;;;;;6.67;77.10;96837.24;1801332;79;21281;-68
2021/01/01 01:19:57;;;;;;;47.62;19.80;;;;;;;6.71;76.83;96832.13;1800974;80;21140;-68
2021/01/01 01:22:25;;;;;;;30.05;13.83;;;;;;;6.73;76.75;96835.86;1804675;78;21563;-66
2021/01/01 01:24:53;;;;;;;11.83;6.65;;;;;;;6.67;75.47;96841.92;1826821;77;21349;-68
2021/01/01 01:27:21;;;;;;;5.60;3.05;;;;;;;6.66;74.64;96839.48;1829184;78;21261;-68
2021/01/01 01:29:50;;;;;;;5.50;3.65;;;;;;;6.59;73.48;96843.13;1829005;77;21722;-68
2021/01/01 01:32:18;;;;;;;7.50;3.33;;;;;;;6.57;72.73;96846.34;1828778;78;21320;-68
2021/01/01 01:34:47;;;;;;;6.10;3.62;;;;;;;6.53;73.03;96845.48;1829179;78;21112;-68
2021/01/01 01:37:15;;;;;;;9.98;5.08;;;;;;;6.49;73.09;96842.86;1829002;78;21340;-68
2021/01/01 01:39:43;;;;;;;10.13;5.20;;;;;;;6.43;73.53;96852.45;1828777;77;21353;-68
2021/01/01 01:42:11;;;;;;;10.40;4.65;;;;;;;6.34;73.86;96850.25;1828997;78;21278;-68
2021/01/01 01:44:39;;;;;;;10.93;5.72;;;;;;;6.25;74.07;96852.41;1828756;78;21639;-68
2021/01/01 01:47:18;;;;;;;12.50;5.67;;;;;;;6.14;74.63;96852.60;1812329;77;21148;-67
2021/01/01 01:49:48;;;;;;;9.75;5.42;;;;;;;6.06;74.87;96859.75;1774770;80;21573;-66
2021/01/01 01:52:17;;;;;;;14.47;6.35;;;;;;;6.01;75.02;96863.22;1789958;79;21184;-66
2021/01/01 01:54:47;;;;;;;9.18;5.22;;;;;;;5.94;75.31;96862.64;1790319;79;21570;-66
2021/01/01 01:57:16;;;;;;;12.68;4.72;;;;;;;5.86;75.34;96863.34;1790651;79;21139;-68
2021/01/01 01:59:46;;;;;;;7.50;3.80;;;;;;;5.82;75.11;96861.97;1790606;79;21188;-67
2021/01/01 02:02:15;;;;;;;7.80;3.52;;;;;;;5.78;74.68;96874.78;1787351;79;21572;-66
2021/01/01 02:04:44;;;;;;;8.88;3.72;;;;;;;5.72;74.53;96879.19;1787571;79;21136;-67
2021/01/01 02:07:13;;;;;;;5.40;3.08;;;;;;;5.65;74.86;96881.98;1787526;80;21223;-67
2021/01/01 02:09:41;;;;;;;5.80;2.72;;;;;;;5.60;74.69;96882.91;1787378;80;21624;-68
2021/01/01 02:12:10;;;;;;;5.03;2.00;;;;;;;5.55;74.41;96890.22;1770127;80;21581;-68
2021/01/01 02:14:39;;;;;;;6.55;3.10;;;;;;;5.49;74.20;96892.03;1769832;80;21694;-68
2021/01/01 02:17:07;;;;;;;6.30;3.22;;;;;;;5.43;75.02;96890.02;1784899;80;21156;-65
2021/01/01 02:19:36;;;;;;;5.47;3.33;;;;;;;5.38;74.98;96894.76;1762071;80;21650;-65
2021/01/01 02:22:04;;;;;;;69.20;31.45;;;;;;;5.34;74.92;96903.23;1772111;81;21180;-68
2021/01/01 02:24:32;;;;;;;30.62;14.30;;;;;;;5.31;75.53;96909.95;1772006;80;21157;-66
2021/01/01 02:27:00;;;;;;;26.37;12.20;;;;;;;5.29;76.33;96911.86;1772298;80;21140;-65
2021/01/01 02:29:30;;;;;;;7.10;3.85;;;;;;;5.27;76.19;96909.88;1772239;81;21752;-65
2021/01/01 02:32:01;;;;;;;6.17;3.67;;;;;;;5.28;75.69;96923.56;1772170;81;21145;-69
2021/01/01 02:34:28;;;;;;;6.08;3.40;;;;;;;5.30;75.37;96923.75;1772066;81;21584;-68
2021/01/01 02:36:56;;;;;;;5.12;2.95;;;;;;;5.31;75.55;96916.38;1772134;81;21156;-72
2021/01/01 02:39:25;;;;;;;5.62;2.75;;;;;;;5.35;75.60;96922.07;1778599;80;21589;-68
2021/01/01 02:41:53;;;;;;;5.00;2.40;;;;;;;5.37;75.48;96924.05;1777986;79;21207;-68
2021/01/01 02:44:21;;;;;;;7.80;2.85;;;;;;;5.39;75.69;96924.71;1777736;81;21443;-69
2021/01/01 02:49:31;;;;;;;6.40;2.15;;;;;;;5.43;76.12;96920.92;1692547;84;21179;-66
2021/01/01 02:52:02;;;;;;;6.10;1.90;;;;;;;5.43;75.84;96923.49;1687687;83;21612;-65
2021/01/01 02:54:30;;;;;;;4.25;1.90;;;;;;;5.41;76.93;96917.69;1687418;84;21174;-65
2021/01/01 02:56:58;;;;;;;3.95;1.85;;;;;;;5.43;76.63;96928.17;1687277;83;21321;-67
2021/01/01 02:59:25;;;;;;;3.15;1.85;;;;;;;5.43;76.81;96929.93;1687534;84;21135;-67
2021/01/01 03:01:56;;;;;;;5.30;2.37;;;;;;;5.41;77.08;96931.34;1681903;85;21185;-67
2021/01/01 03:04:24;;;;;;;1.98;1.62;;;;;;;5.41;76.67;96936.98;1684128;83;21155;-67
2021/01/01 03:06:52;;;;;;;5.22;1.82;;;;;;;5.40;76.59;96936.64;1684291;83;21321;-67
2021/01/01 03:09:20;;;;;;;3.80;1.77;;;;;;;5.38;76.76;96932.91;1681930;85;21573;-67
2021/01/01 03:11:48;;;;;;;4.53;2.55;;;;;;;5.37;76.80;96937.70;1664587;85;21175;-65
2021/01/01 03:14:18;;;;;;;4.72;2.45;;;;;;;5.34;76.82;96939.74;1682230;85;21252;-64
2021/01/01 03:16:46;;;;;;;4.55;2.17;;;;;;;5.32;76.87;96936.50;1684119;84;21734;-65
2021/01/01 03:19:14;;;;;;;3.83;2.22;;;;;;;5.30;77.12;96939.67;1683993;85;21575;-65
2021/01/01 03:21:42;;;;;;;5.00;2.25;;;;;;;5.26;77.41;96942.52;1684179;83;21136;-67
2021/01/01 03:24:10;;;;;;;4.28;2.62;;;;;;;5.22;77.65;96937.77;1684299;83;21750;-67
2021/01/01 03:26:39;;;;;;;3.55;2.30;;;;;;;5.17;78.37;96942.06;1684308;85;21361;-68
2021/01/01 03:29:08;;;;;;;2.35;1.60;;;;;;;5.15;78.36;96945.70;1681971;85;21585;-64
2021/01/01 03:31:36;;;;;;;6.28;2.40;;;;;;;5.13;78.27;96949.70;1684198;84;21170;-64
2021/01/01 03:34:03;;;;;;;6.72;2.37;;;;;;;5.11;78.17;96950.77;1681861;85;21564;-64
2021/01/01 03:36:32;;;;;;;4.35;2.45;;;;;;;5.08;77.95;96947.18;1684204;84;21175;-67
2021/01/01 03:38:59;;;;;;;2.52;1.85;;;;;;;5.05;77.84;96953.41;1682344;85;22445;-66
2021/01/01 03:41:27;;;;;;;2.95;1.67;;;;;;;5.02;77.84;96947.73;1684403;85;21210;-67
2021/01/01 03:43:55;;;;;;;2.83;1.82;;;;;;;5.00;77.66;96959.42;1684593;84;21328;-67
2021/01/01 03:46:23;;;;;;;2.80;1.80;;;;;;;4.96;77.68;96964.49;1684386;84;21670;-66
2021/01/01 03:48:51;;;;;;;4.35;1.72;;;;;;;4.93;77.84;96965.23;1687846;85;21250;-66
2021/01/01 03:51:19;;;;;;;4.80;2.37;;;;;;;4.87;78.07;96969.13;1689828;83;21182;-64
2021/01/01 03:53:48;;;;;;;5.75;2.67;;;;;;;4.83;78.27;96969.52;1707517;82;21730;-63
2021/01/01 03:56:16;;;;;;;4.47;2.08;;;;;;;4.77;78.15;96971.70;1712651;82;21253;-63
2021/01/01 03:58:44;;;;;;;3.10;1.92;;;;;;;4.74;78.04;96971.14;1687266;84;21196;-64
2021/01/01 04:01:17;;;;;;;3.33;2.22;;;;;;;4.73;78.23;96982.37;1712827;82;21181;-64
2021/01/01 04:03:45;;;;;;;3.90;2.40;;;;;;;4.71;78.29;96985.52;1707756;84;21222;-64
2021/01/01 04:06:13;;;;;;;5.65;2.72;;;;;;;4.71;78.27;96981.66;1712554;84;21633;-64
2021/01/01 04:08:41;;;;;;;8.05;3.45;;;;;;;4.70;78.89;96991.63;1707410;83;21568;-63
2021/01/01 04:11:09;;;;;;;3.47;2.40;;;;;;;4.68;79.25;96993.04;1712693;84;21161;-67
2021/01/01 04:13:38;;;;;;;6.08;2.95;;;;;;;4.69;79.15;96992.57;1707320;83;21717;-67
2021/01/01 04:16:26;;;;;;;5.75;3.77;;;;;;;4.71;78.96;96997.91;1712474;82;21179;-67
2021/01/01 04:18:54;;;;;;;6.90;3.55;;;;;;;4.75;78.91;96995.89;1709662;83;21665;-67
2021/01/01 04:21:22;;;;;;;5.62;3.47;;;;;;;4.79;78.83;97001.12;1696616;84;21632;-66
2021/01/01 04:23:50;;;;;;;3.85;2.85;;;;;;;4.83;78.90;97008.92;1709474;83;21174;-66
2021/01/01 04:26:20;;;;;;;6.37;2.58;;;;;;;4.89;78.86;97008.89;1709788;83;21174;-65
2021/01/01 04:28:48;;;;;;;4.10;2.33;;;;;;;4.92;78.93;97012.01;1709426;83;21170;-66
2021/01/01 04:31:17;;;;;;;5.90;2.52;;;;;;;4.96;78.94;97017.23;1709734;83;21238;-67
2021/01/01 04:33:46;;;;;;;5.83;3.40;;;;;;;4.97;78.95;97024.48;1709529;82;21177;-68
2021/01/01 04:36:14;;;;;;;5.47;3.58;;;;;;;4.92;79.21;97027.91;1709278;82;21166;-66
2021/01/01 04:38:42;;;;;;;7.22;2.70;;;;;;;4.88;79.10;97031.69;1709436;83;21198;-65
2021/01/01 04:41:11;;;;;;;5.85;2.87;;;;;;;4.89;79.28;97040.58;1709241;83;21631;-65
2021/01/01 04:43:39;;;;;;;5.00;3.02;;;;;;;4.87;79.33;97040.34;1709578;83;21214;-65
2021/01/01 04:46:07;;;;;;;6.83;3.25;;;;;;;4.85;80.37;97042.24;1709467;83;21234;-65
2021/01/01 04:48:36;;;;;;;3.90;2.62;;;;;;;4.76;81.11;97049.78;1709286;83;21182;-67
2021/01/01 04:51:07;;;;;;;7.03;3.67;;;;;;;4.77;81.21;97053.17;1709481;82;21177;-64
2021/01/01 04:53:43;;;;;;;4.85;2.58;;;;;;;4.81;80.60;97055.84;1709432;83;21238;-67
2021/01/01 04:56:11;;;;;;;4.00;2.60;;;;;;;4.83;80.57;97059.55;1709611;82;21214;-65
2021/01/01 04:58:40;;;;;;;3.70;1.82;;;;;;;4.86;80.37;97063.99;1709392;83;22266;-65
2021/01/01 05:01:08;;;;;;;4.45;1.75;;;;;;;4.91;80.17;97065.69;1709297;83;21147;-63
2021/01/01 05:03:36;;;;;;;1.80;1.57;;;;;;;5.00;79.99;97061.52;1709285;83;21135;-63
2021/01/01 05:06:04;;;;;;;5.30;1.77;;;;;;;5.08;79.78;97075.84;1709315;82;21187;-65
2021/01/01 05:08:33;;;;;;;4.65;2.05;;;;;;;5.15;79.45;97076.48;1709534;82;21241;-67
2021/01/01 05:11:09;;;;;;;1.80;1.52;;;;;;;5.23;79.37;97080.97;1709509;82;21210;-67
2021/01/01 05:13:37;;;;;;;2.60;1.30;;;;;;;5.25;79.18;97083.75;1710035;83;21217;-66
2021/01/01 05:16:07;;;;;;;1.98;1.47;;;;;;;5.31;79.09;97082.89;1709723;82;21217;-68
2021/01/01 05:18:35;;;;;;;3.83;1.87;;;;;;;5.33;78.96;97092.09;1727816;82;21150;-63
2021/01/01 05:21:11;;;;;;;2.52;1.52;;;;;;;5.32;79.00;97098.69;1740740;81;21305;-64
2021/01/01 05:23:41;;;;;;;4.15;1.82;;;;;;;5.31;79.04;97106.06;1710390;82;21166;-66
2021/01/01 05:26:13;;;;;;;4.40;1.60;;;;;;;5.29;79.33;97107.49;1741128;82;21725;-66
2021/01/01 05:29:07;;;;;;;1.32;0.95;;;;;;;5.23;79.14;97107.53;1740858;82;21312;-66
2021/01/01 05:31:41;;;;;;;1.20;0.78;;;;;;;5.26;78.80;97120.13;1740985;81;21619;-66
2021/01/01 05:34:18;;;;;;;2.35;0.88;;;;;;;5.28;78.51;97120.48;1741026;81;22322;-66
2021/01/01 05:36:48;;;;;;;1.98;0.98;;;;;;;5.28;78.05;97129.02;1741053;82;21233;-65
2021/01/01 05:39:21;;;;;;;1.32;0.98;;;;;;;5.27;78.04;97126.09;1741303;81;21162;-68
2021/01/01 05:41:53;;;;;;;0.93;0.70;;;;;;;5.24;77.87;97123.33;1741126;82;21162;-67
2021/01/01 05:44:28;;;;;;;1.17;0.80;;;;;;;5.21;77.82;97131.28;1740947;81;21186;-67
2021/01/01 05:47:06;;;;;;;0.70;0.70;;;;;;;5.19;77.86;97137.52;1741258;81;21174;-67
2021/01/01 05:49:40;;;;;;;1.25;0.98;;;;;;;5.16;77.82;97142.45;1740925;82;21542;-67
2021/01/01 05:52:16;;;;;;;1.07;0.50;;;;;;;5.14;77.91;97144.33;1740972;82;21594;-66
2021/01/01 05:54:52;;;;;;;0.78;0.50;;;;;;;5.12;77.92;97152.66;1741190;82;21209;-66
2021/01/01 05:57:20;;;;;;;2.05;0.90;;;;;;;5.12;77.86;97153.13;1740794;82;21217;-68
2021/01/01 05:59:49;;;;;;;1.25;0.72;;;;;;;5.10;77.83;97158.86;1741582;82;21239;-66
2021/01/01 06:02:17;;;;;;;0.93;0.70;;;;;;;5.08;77.68;97156.91;1741091;81;21588;-66
2021/01/01 06:04:46;;;;;;;0.75;0.60;;;;;;;5.06;77.97;97161.34;1740998;82;21167;-66
2021/01/01 06:07:15;;;;;;;0.80;0.47;;;;;;;5.04;77.91;97164.06;1740871;82;21316;-67
2021/01/01 06:09:44;;;;;;;1.52;0.53;;;;;;;5.03;77.91;97170.15;1741099;81;21198;-67
2021/01/01 06:12:35;;;;;;;1.12;0.68;;;;;;;5.00;78.54;97176.84;1740918;81;21186;-66
2021/01/01 06:15:26;;;;;;;0.85;0.40;;;;;;;4.96;79.04;97182.36;1777089;79;21150;-66
2021/01/01 06:18:00;;;;;;;0.53;0.37;;;;;;;4.91;78.84;97185.78;1674501;85;21211;-65
2021/01/01 06:20:30;;;;;;;0.93;0.60;;;;;;;4.86;79.30;97190.51;1686684;85;21321;-66
2021/01/01 06:23:05;;;;;;;0.98;0.68;;;;;;;4.79;79.67;97188.42;1687203;84;21763;-66
2021/01/01 06:25:37;;;;;;;0.87;0.60;;;;;;;4.75;79.79;97190.08;1687363;85;21184;-65
2021/01/01 06:28:05;;;;;;;0.30;0.30;;;;;;;4.71;80.34;97191.27;1687392;84;21285;-65
2021/01/01 06:30:37;;;;;;;1.57;0.68;;;;;;;4.69;80.15;97201.70;1687210;84;21294;-66
2021/01/01 06:33:07;;;;;;;1.07;0.65;;;;;;;4.68;80.19;97194.92;1670067;85;21238;-65
2021/01/01 06:35:43;;;;;;;0.93;0.70;;;;;;;4.68;80.46;97199.23;1687234;84;21191;-64
2021/01/01 06:38:22;;;;;;;;;;;;;;;4.66;81.03;97204.99;1689594;85;21159;-66
2021/01/01 06:40:50;;;;;;;0.93;0.72;;;;;;;4.64;80.65;97205.57;1676123;85;20142;-64
2021/01/01 06:43:18;;;;;;;0.50;0.35;;;;;;;4.65;80.13;97213.17;1687379;84;21730;-64
2021/01/01 06:45:46;;;;;;;1.47;0.75;;;;;;;4.67;79.91;97208.70;1687745;84;21211;-66
2021/01/01 06:48:35;;;;;;;0.47;0.40;;;;;;;4.70;79.64;97210.23;1687235;84;21264;-66
2021/01/01 06:51:14;;;;;;;0.47;0.40;;;;;;;4.72;79.59;97213.02;1687689;84;21172;-66
2021/01/01 06:53:43;;;;;;;0.40;0.37;;;;;;;4.74;79.86;97221.91;1687481;85;21349;-69
2021/01/01 06:56:12;;;;;;;0.40;0.40;;;;;;;4.76;79.99;97227.73;1687349;85;21305;-68
2021/01/01 06:58:42;;;;;;;0.60;0.60;;;;;;;4.75;80.19;97226.09;1687054;84;21168;-67
2021/01/01 07:01:18;;;;;;;0.65;0.30;;;;;;;4.75;79.98;97228.20;1687469;85;21696;-68
2021/01/01 07:03:55;;;;;;;0.33;0.30;;;;;;;4.79;79.77;97235.19;1687295;84;21305;-67
2021/01/01 07:06:33;;;;;;;0.53;0.42;;;;;;;4.80;79.70;97232.97;1687277;84;21700;-68
2021/01/01 07:09:03;;;;;;;0.78;0.50;;;;;;;4.78;80.66;97238.72;1687312;84;21313;-68
2021/01/01 07:11:35;;;;;;;0.93;0.60;;;;;;;4.71;81.43;97247.85;1687160;84;21377;-65
2021/01/01 07:14:10;;;;;;;1.10;0.70;;;;;;;4.70;81.98;97250.92;1687386;85;21171;-65
2021/01/01 07:16:48;;;;;;;1.22;0.60;;;;;;;4.70;81.75;97250.09;1689561;84;21171;-65
2021/01/01 07:19:17;;;;;;;0.93;0.60;;;;;;;4.67;82.01;97255.47;1677250;84;21143;-66
2021/01/01 07:21:44;;;;;;;1.35;0.55;;;;;;;4.65;82.03;97256.08;1695872;83;21588;-65
2021/01/01 07:24:13;;;;;;;0.75;0.70;;;;;;;4.63;82.95;97254.11;1696027;83;21171;-66
2021/01/01 07:26:41;;;;;;;0.65;0.55;;;;;;;4.64;83.75;97261.69;1696062;83;21381;-66
2021/01/01 07:29:09;;;;;;;0.55;0.53;;;;;;;4.69;83.07;97259.56;1695918;83;21352;-66
2021/01/01 07:31:37;;;;;;;1.02;0.68;;;;;;;4.75;82.60;97260.34;1695821;83;21152;-66
2021/01/01 07:34:11;;;;;;;0.30;0.30;;;;;;;4.84;82.41;97263.94;1696058;83;21212;-65
2021/01/01 07:36:39;;;;;;;0.78;0.50;;;;;;;4.93;82.73;97263.67;1695870;83;21361;-66
2021/01/01 07:39:08;;;;;;;0.50;0.50;;;;;;;5.00;82.24;97268.66;1695743;84;21179;-66
2021/01/01 07:41:36;;;;;;;0.80;0.70;;;;;;;5.08;82.07;97272.24;1696086;83;21152;-66
2021/01/01 07:44:05;;;;;;;1.67;0.95;;;;;;;5.16;81.70;97271.61;1695778;83;21174;-67
2021/01/01 07:46:34;;;;;;;2.65;0.70;;;;;;;5.20;81.66;97278.96;1695940;84;21742;-66
2021/01/01 07:49:02;;;;;;;2.55;0.45;;;;;;;5.24;81.23;97279.05;1695855;83;21316;-67
2021/01/01 07:51:31;;;;;;;0.40;0.40;;;;;;;5.28;80.73;97289.09;1695894;84;21298;-67
2021/01/01 07:54:03;;;;;;;0.78;0.50;;;;;;;5.21;81.19;97288.79;1693356;83;21167;-67
2021/01/01 07:56:31;;;;;;;0.90;0.75;;;;;;;5.22;81.00;97292.97;1696089;83;21172;-68
2021/01/01 07:58:59;;;;;;;2.35;0.93;;;;;;;5.20;81.40;97293.12;1695971;83;21187;-67
2021/01/01 08:01:30;;;;;;;1.60;0.82;;;;;;;5.25;81.24;97296.11;1676231;84;21151;-67
2021/01/01 08:03:58;;;;;;;1.98;0.85;;;;;;;5.17;81.59;97299.81;1696161;83;21836;-68
2021/01/01 08:06:26;;;;;;;1.30;1.02;;;;;;;5.08;81.64;97299.73;1695776;83;21148;-68
2021/01/01 08:09:04;;;;;;;0.80;0.60;;;;;;;5.09;81.69;97297.52;1695909;83;21305;-67
2021/01/01 08:11:33;;;;;;;1.55;0.95;;;;;;;5.17;81.44;97308.82;1696046;83;21344;-65
2021/01/01 08:14:03;;;;;;;0.55;0.53;;;;;;;5.25;81.16;97307.70;1668131;86;21246;-67
2021/01/01 08:16:31;;;;;;;1.22;0.65;;;;;;;5.31;81.28;97317.16;1667904;85;21175;-66
2021/01/01 08:18:59;;;;;;;1.15;0.60;;;;;;;5.38;80.88;97316.52;1668199;84;21171;-66
2021/01/01 08:21:28;;;;;;;2.25;0.95;;;;;;;5.44;80.53;97319.08;1668149;85;21182;-67
2021/01/01 08:24:07;;;;;;;1.00;0.57;;;;;;;5.49;80.53;97322.06;1667987;86;21195;-65
2021/01/01 08:26:38;;;;;;;1.35;0.70;;;;;;;5.60;79.87;97323.31;1667950;84;21183;-65
2021/01/01 08:29:10;;;;;;;0.88;0.57;;;;;;;5.68;79.39;97330.72;1667727;84;21191;-67
2021/01/01 08:31:39;;;;;;;2.37;1.20;;;;;;;5.83;79.24;97329.12;1648964;85;21183;-66
2021/01/01 08:34:09;;;;;;;1.27;0.72;;;;;;;6.01;78.34;97324.55;1668019;85;21243;-66
2021/01/01 08:36:38;;;;;;;1.62;0.78;;;;;;;6.28;78.08;97327.00;1667782;84;21179;-66
2021/01/01 08:39:13;;;;;;;4.22;1.52;;;;;;;6.69;76.43;97330.70;1668181;84;21155;-66
2021/01/01 08:41:48;;;;;;;2.05;1.12;;;;;;;7.19;75.56;97331.88;1667816;86;21204;-66
2021/01/01 08:44:17;;;;;;;1.30;0.78;;;;;;;7.62;71.98;97337.39;1667974;85;21155;-66
2021/01/01 08:46:45;;;;;;;0.93;0.85;;;;;;;7.99;70.20;97334.34;1667760;86;21199;-68
2021/01/01 08:49:22;;;;;;;2.27;1.10;;;;;;;8.23;71.18;97336.91;1667830;84;21600;-68
2021/01/01 08:51:50;;;;;;;1.98;1.12;;;;;;;8.41;68.61;97336.50;1667894;85;21215;-68
2021/01/01 08:54:45;;;;;;;1.40;0.90;;;;;;;8.41;69.56;97339.09;1664567;86;21698;-69
2021/01/01 08:57:13;;;;;;;1.35;0.80;;;;;;;8.67;69.31;97341.82;1661105;85;21599;-68
2021/01/01 08:59:49;;;;;;;1.30;0.80;;;;;;;8.42;68.63;97345.90;1661244;86;21323;-69
2021/01/01 09:02:17;;;;;;;2.35;1.27;;;;;;;8.08;69.42;97349.50;1635155;87;21612;-69
2021/01/01 09:04:48;;;;;;;1.90;1.12;;;;;;;8.33;68.67;97354.03;1664755;86;21252;-68
2021/01/01 09:07:16;;;;;;;2.85;0.88;;;;;;;8.59;68.33;97356.78;1661177;86;21184;-68
2021/01/01 09:09:44;;;;;;;0.93;0.70;;;;;;;8.43;67.57;97357.41;1661344;86;21176;-68
2021/01/01 09:12:20;;;;;;;2.45;1.17;;;;;;;8.32;68.48;97367.95;1661145;86;21342;-65
2021/01/01 09:14:55;;;;;;;0.90;0.90;;;;;;;7.93;70.51;97372.41;1661185;86;21291;-68
2021/01/01 09:17:25;;;;;;;0.90;0.90;;;;;;;7.64;71.68;97372.47;1660955;86;21549;-69
2021/01/01 09:20:08;;;;;;;1.37;0.80;;;;;;;7.48;72.14;97373.98;1637435;87;21179;-68
2021/01/01 09:22:38;;;;;;;0.80;0.72;;;;;;;7.10;72.98;97376.92;1661152;86;21309;-68
2021/01/01 09:25:24;;;;;;;1.40;0.78;;;;;;;6.93;73.63;97374.99;1661198;85;21183;-68
2021/01/01 09:27:53;;;;;;;2.50;0.85;;;;;;;6.92;74.20;97375.97;1661278;86;21633;-69
2021/01/01 09:30:29;;;;;;;2.83;1.30;;;;;;;7.09;73.55;97381.73;1661439;86;21378;-68
2021/01/01 09:33:00;;;;;;;1.62;0.80;;;;;;;7.25;73.07;97385.08;1660987;85;21674;-68
2021/01/01 09:35:30;;;;;;;1.25;0.82;;;;;;;7.60;72.61;97380.16;1661099;86;21157;-69
2021/01/01 09:38:02;;;;;;;0.98;0.78;;;;;;;7.76;71.95;97378.77;1661166;86;21322;-68
2021/01/01 09:40:34;;;;;;;2.85;0.85;;;;;;;7.92;71.72;97378.53;1661326;86;21318;-69
2021/01/01 09:43:08;;;;;;;1.02;0.70;;;;;;;7.86;70.26;97385.54;1661120;86;21626;-69
2021/01/01 09:45:38;;;;;;;1.00;0.60;;;;;;;8.09;69.88;97382.95;1637205;87;21182;-68
2021/01/01 09:48:07;;;;;;;1.30;0.70;;;;;;;8.09;69.53;97384.75;1637440;87;21179;-68
2021/01/01 09:50:36;;;;;;;1.05;0.70;;;;;;;7.61;71.05;97390.02;1661064;86;21224;-68
2021/01/01 09:53:04;;;;;;;1.67;1.05;;;;;;;7.73;69.90;97391.50;1661245;86;21188;-66
2021/01/01 09:55:32;;;;;;;1.55;1.10;;;;;;;7.51;70.79;97387.91;1659891;85;21180;-67
2021/01/01 09:58:01;;;;;;;2.47;0.80;;;;;;;7.64;70.65;97395.73;1656975;85;21203;-73
2021/01/01 10:00:32;;;;;;;1.10;0.60;;;;;;;7.55;70.56;97398.30;1657617;86;21226;-68
2021/01/01 10:03:00;;;;;;;0.98;0.55;;;;;;;7.61;70.28;97397.77;1657114;86;21305;-72
2021/01/01 10:05:28;;;;;;;0.93;0.60;;;;;;;7.49;69.83;97405.33;1656900;86;21187;-67
2021/01/01 10:07:56;;;;;;;0.72;0.60;;;;;;;7.43;70.41;97403.30;1657060;86;21196;-68
2021/01/01 10:10:24;;;;;;;2.58;1.50;;;;;;;7.12;71.78;97406.45;1657113;86;21210;-68
2021/01/01 10:12:52;;;;;;;1.27;0.88;;;;;;;6.84;72.73;97409.84;1657021;86;21333;-66
2021/01/01 10:15:21;;;;;;;0.60;0.50;;;;;;;6.59;73.78;97407.25;1656636;85;21195;-69
2021/01/01 10:17:49;;;;;;;1.35;0.60;;;;;;;6.48;74.60;97409.47;1656886;86;21179;-68
2021/01/01 10:20:17;;;;;;;0.90;0.50;;;;;;;6.48;74.35;97413.80;1653873;86;21163;-66
2021/01/01 10:22:47;;;;;;;1.15;0.60;;;;;;;6.52;73.88;97418.58;1657390;86;21179;-65
2021/01/01 10:25:14;;;;;;;1.15;0.62;;;;;;;6.61;73.81;97411.82;1657993;86;21196;-67
2021/01/01 10:27:42;;;;;;;1.02;0.60;;;;;;;6.69;73.43;97417.14;1655759;86;21211;-71
2021/01/01 10:30:15;;;;;;;1.00;0.65;;;;;;;6.76;73.10;97412.27;1651177;87;21203;-65
2021/01/01 10:32:43;;;;;;;1.50;0.57;;;;;;;6.81;72.63;97416.56;1651374;86;21247;-64
2021/01/01 10:35:12;;;;;;;0.50;0.50;;;;;;;6.87;73.50;97418.59;1651208;87;21751;-65
2021/01/01 10:37:40;;;;;;;0.45;0.37;;;;;;;6.86;72.96;97425.52;1651093;87;21310;-67
2021/01/01 10:40:10;;;;;;;1.07;0.78;;;;;;;6.88;72.92;97428.80;1651409;86;21195;-65
2021/01/01 10:42:39;;;;;;;1.17;0.70;;;;;;;6.90;73.89;97426.06;1651336;87;21213;-65
2021/01/01 10:45:08;;;;;;;0.60;0.50;;;;;;;6.88;72.77;97422.82;1651296;87;21219;-66
2021/01/01 10:47:36;;;;;;;1.50;0.70;;;;;;;6.78;73.05;97420.67;1651144;87;21408;-65
2021/01/01 10:50:06;;;;;;;1.50;0.72;;;;;;;6.64;74.68;97416.71;1632103;87;21169;-66
2021/01/01 10:52:34;;;;;;;0.62;0.62;;;;;;;6.60;74.59;97414.05;1651538;87;21585;-65
2021/01/01 10:55:02;;;;;;;1.22;0.90;;;;;;;6.49;75.42;97409.00;1651277;87;21203;-65
2021/01/01 10:57:30;;;;;;;1.40;0.70;;;;;;;6.45;75.28;97410.20;1655002;86;21325;-65
2021/01/01 10:59:58;;;;;;;1.05;0.85;;;;;;;6.52;74.64;97411.31;1655930;86;21160;-65
2021/01/01 11:02:27;;;;;;;1.35;0.98;;;;;;;6.59;75.05;97413.70;1655449;86;21321;-65
2021/01/01 11:04:55;;;;;;;1.98;0.98;;;;;;;6.61;74.48;97410.53;1655629;86;21188;-65
2021/01/01 11:07:23;;;;;;;1.30;0.98;;;;;;;6.62;74.74;97412.14;1655584;86;21693;-65
2021/01/01 11:09:51;;;;;;;1.12;0.80;;;;;;;6.71;74.70;97415.23;1655665;86;21228;-64
2021/01/01 11:12:19;;;;;;;1.07;0.93;;;;;;;6.68;74.46;97414.21;1655796;86;21175;-64
2021/01/01 12:27:05;;;;;;;1.80;0.90;;;;;;;7.77;69.19;97487.67;1796729;78;21170;-66
2021/01/01 12:29:36;;;;;;;1.75;0.88;;;;;;;7.85;69.05;97502.84;1762267;80;21238;-66
2021/01/01 12:32:08;;;;;;;1.32;1.10;;;;;;;7.94;68.28;97507.64;1749061;81;21665;-66
2021/01/01 12:34:40;;;;;;;0.93;0.60;;;;;;;8.08;67.54;97504.19;1744602;81;21250;-65
2021/01/01 12:37:09;;;;;;;1.47;1.00;;;;;;;8.20;66.37;97500.97;1748532;81;21159;-66
2021/01/01 12:39:38;;;;;;;1.40;0.68;;;;;;;8.12;67.50;97500.84;1751686;81;21143;-65
2021/01/01 12:42:07;;;;;;;2.33;1.05;;;;;;;7.99;66.91;97503.70;1747652;81;21189;-66
2021/01/01 12:44:35;;;;;;;0.98;0.70;;;;;;;7.40;67.25;97504.30;1744655;82;21540;-65
2021/01/01 12:47:03;;;;;;;0.90;0.55;;;;;;;7.97;66.45;97504.34;1744532;82;21236;-68
2021/01/01 12:49:32;;;;;;;30.52;12.33;;;;;;;8.56;65.17;97500.20;1744626;82;21198;-72
2021/01/01 12:52:00;;;;;;;2.85;1.65;;;;;;;9.22;63.24;97500.03;1744415;82;21214;-70
2021/01/01 12:54:28;;;;;;;1.30;1.05;;;;;;;8.97;64.82;97506.73;1744192;82;21164;-66
2021/01/01 12:56:56;;;;;;;1.57;1.12;;;;;;;9.00;64.56;97506.44;1744486;82;21183;-66
2021/01/01 12:59:25;;;;;;;1.70;0.80;;;;;;;8.44;65.13;97512.19;1744443;82;21170;-66
2021/01/01 13:01:54;;;;;;;1.20;0.90;;;;;;;9.32;63.83;97509.88;1744259;82;21603;-66
2021/01/01 13:04:22;;;;;;;1.50;0.72;;;;;;;10.19;62.14;97502.28;1744338;82;21135;-66
2021/01/01 13:06:51;;;;;;;1.92;1.10;;;;;;;11.05;58.71;97513.45;1744501;82;21155;-69